TimeCET,TemperatureF,Dew PointF,Humidity,Sea Level PressureIn,VisibilityMPH,Wind Direction,Wind SpeedMPH,Gust SpeedMPH,PrecipitationIn,Events,Conditions,WindDirDegrees,DateUTC
12:00 AM,41.0,41.0,100,29.80,0.3,Variable,2.3,-,N/A,Fog,Fog,0,2013-11-02 23:00:00
12:20 AM,42.8,42.8,100,29.83,3.1,Calm,Calm,-,N/A,Fog,Scattered Clouds,0,2013-11-02 23:20:00
1:00 AM,42.8,41.0,93,29.80,2.5,Variable,2.3,-,N/A,Fog,Mist,0,2013-11-03 00:00:00
1:39 AM,44.6,42.8,93,29.80,5.0,WSW,5.8,-,N/A,,Unknown,250,2013-11-03 00:39:00
2:00 AM,44.6,44.6,100,29.80,-9999.0,Variable,2.3,-,N/A,,Clear,0,2013-11-03 01:00:00
3:00 AM,48.2,48.2,100,29.77,-9999.0,WSW,5.8,-,N/A,,Clear,250,2013-11-03 02:00:00
4:00 AM,48.2,48.2,100,29.74,-9999.0,Variable,2.3,-,N/A,,Clear,0,2013-11-03 03:00:00
5:00 AM,44.6,44.6,100,29.71,-9999.0,SSE,5.8,-,N/A,,Clear,160,2013-11-03 04:00:00
5:30 AM,42.8,42.8,100,29.71,2.5,Variable,2.3,-,N/A,,Mist,0,2013-11-03 04:30:00
6:00 AM,44.6,44.6,100,29.71,6.2,Calm,Calm,-,N/A,Fog,Unknown,0,2013-11-03 05:00:00
6:33 AM,44.6,44.6,100,29.71,1.6,ENE,2.3,-,N/A,Fog,Mist,60,2013-11-03 05:33:00
6:44 AM,44.6,44.6,100,29.71,0.6,East,3.5,-,N/A,Fog,Fog,80,2013-11-03 05:44:00
7:00 AM,42.8,42.8,100,29.71,0.5,East,3.5,-,N/A,Fog,Fog,100,2013-11-03 06:00:00
7:43 AM,44.6,44.6,100,29.71,1.9,Variable,1.2,-,N/A,Fog,Mist,0,2013-11-03 06:43:00
8:00 AM,46.4,46.4,100,29.71,2.5,Variable,2.3,-,N/A,Fog,Mist,0,2013-11-03 07:00:00
9:00 AM,44.6,44.6,100,29.68,1.9,East,3.5,-,N/A,Fog,Mostly Cloudy,100,2013-11-03 08:00:00
10:00 AM,44.6,44.6,100,29.65,2.8,SSE,4.6,-,N/A,,Mostly Cloudy,150,2013-11-03 09:00:00
10:12 AM,46.4,44.6,93,29.65,1.2,South,3.5,-,N/A,Rain,Light Rain,180,2013-11-03 09:12:00
11:00 AM,46.4,46.4,100,29.65,1.9,WSW,4.6,-,N/A,Rain,Light Rain,240,2013-11-03 10:00:00
12:00 PM,46.4,46.4,100,29.65,1.2,WSW,4.6,-,N/A,Rain,Light Rain,240,2013-11-03 11:00:00
1:00 PM,48.2,48.2,100,29.65,1.2,WSW,5.8,-,N/A,Rain,Light Rain,250,2013-11-03 12:00:00
2:00 PM,48.2,46.4,93,29.65,6.2,West,10.4,-,N/A,Rain,Light Rain,270,2013-11-03 13:00:00
3:00 PM,48.2,44.6,87,29.68,6.2,West,13.8,25.3,N/A,,Mostly Cloudy,260,2013-11-03 14:00:00
4:00 PM,48.2,41.0,76,29.71,6.2,West,16.1,-,N/A,,Mostly Cloudy,280,2013-11-03 15:00:00
5:00 PM,46.4,41.0,81,29.71,6.2,West,11.5,-,N/A,,Mostly Cloudy,270,2013-11-03 16:00:00
6:00 PM,46.4,41.0,81,29.74,6.2,West,13.8,-,N/A,,Mostly Cloudy,270,2013-11-03 17:00:00
7:00 PM,44.6,39.2,81,29.77,6.2,West,13.8,26.5,N/A,,Mostly Cloudy,270,2013-11-03 18:00:00
8:00 PM,42.8,37.4,81,29.80,-9999.0,WNW,15.0,-,N/A,,Clear,290,2013-11-03 19:00:00
9:00 PM,41.0,37.4,87,29.83,6.2,SW,5.8,-,N/A,,Partly Cloudy,230,2013-11-03 20:00:00
10:00 PM,39.2,37.4,93,29.83,-9999.0,SSW,3.5,-,N/A,,Clear,210,2013-11-03 21:00:00
11:00 PM,39.2,35.6,87,29.83,-9999.0,SW,8.1,-,N/A,,Clear,230,2013-11-03 22:00:00